Terminal Aerodrome Forecast
Issued by NWS

Home | Current Version | Previous Version | Text Only | Print | Product List | Glossary On
Versions: 1 2 3 4 5 6 7 8 9 10 11 12 13 14 15 16 17 18 19 20
000
FTUS44 KLZK 221300 AAA
TAFADF
TAF AMD
KADF 221314Z 2213/2312 04005KT P6SM SKC
     FM221500 10008KT P6SM SKC
     FM230000 08003KT P6SM SCT250=

USA.gov is the U.S. government's official web portal to all federal, state and local government web resources and services.